BAW17S EGLL-KBGR
Flight info
| Callsign | BAW17S |
|---|---|
| Flight time | N/A |
| Altitude | 36000 |
| Route | CPT3G CPT L9 BUCGO FELCA NICXI BAKUR TOMTO MOMIN RESNO/M082F390 56N020W 5630N03000W 56N040W 55N050W LOMSI/N0479F400 N668A TAFFY ENE PARCH4 |
| Aircraft | B772/H-SDE1E3FGHIJ3J5J6M1M2P2RWXYZ/LB1D1 |
Departure
| Time | N/A |
|---|---|
| Airport | London Heathrow Airport (EGLL) |
Arrival
| Time | 2026-04-25 14:32 |
|---|---|
| Airport | Bangor International Airport (KBGR) |
| Time | Latitude | Longitude | Altitude | Speed | Heading |
|---|---|---|---|---|---|
| 2026-04-25 13:54 | 44.23712 | -69.97601 | 40147 ft | 477 kts | 214° |
| 2026-04-25 13:54 | 44.20696 | -69.99610 | 40138 ft | 483 kts | 205° |
| 2026-04-25 13:55 | 44.14187 | -70.01544 | 40009 ft | 478 kts | 186° |
| 2026-04-25 13:55 | 44.10873 | -70.01414 | 39878 ft | 474 kts | 176° |
| 2026-04-25 13:55 | 44.07843 | -70.00638 | 39699 ft | 472 kts | 166° |
| 2026-04-25 13:55 | 44.04725 | -69.99155 | 39173 ft | 478 kts | 157° |
| 2026-04-25 13:56 | 44.01726 | -69.96997 | 38076 ft | 495 kts | 147° |
| 2026-04-25 13:56 | 43.98910 | -69.94122 | 37047 ft | 508 kts | 137° |
| 2026-04-25 13:56 | 43.96407 | -69.90629 | 36262 ft | 513 kts | 127° |
| 2026-04-25 13:56 | 43.94294 | -69.86628 | 35571 ft | 514 kts | 117° |
| 2026-04-25 13:57 | 43.92619 | -69.82259 | 35006 ft | 511 kts | 109° |
| 2026-04-25 13:57 | 43.91665 | -69.79288 | 34711 ft | 509 kts | 107° |
| 2026-04-25 13:57 | 43.89858 | -69.73241 | 34244 ft | 504 kts | 105° |
| 2026-04-25 13:57 | 43.88562 | -69.68805 | 33854 ft | 502 kts | 105° |
| 2026-04-25 13:58 | 43.87260 | -69.64330 | 33482 ft | 499 kts | 105° |
| 2026-04-25 13:58 | 43.85972 | -69.59885 | 33137 ft | 495 kts | 105° |
| 2026-04-25 13:58 | 43.84696 | -69.55467 | 32803 ft | 492 kts | 105° |
| 2026-04-25 13:58 | 43.83432 | -69.51084 | 32443 ft | 489 kts | 105° |
| 2026-04-25 13:59 | 43.82180 | -69.46732 | 32081 ft | 486 kts | 105° |
| 2026-04-25 13:59 | 43.80932 | -69.42393 | 31742 ft | 483 kts | 105° |
| 2026-04-25 13:59 | 43.79695 | -69.38089 | 31390 ft | 481 kts | 105° |
| 2026-04-25 13:59 | 43.78466 | -69.33804 | 31049 ft | 477 kts | 104° |
| 2026-04-25 14:00 | 43.77516 | -69.29457 | 30705 ft | 465 kts | 93° |
| 2026-04-25 14:00 | 43.77098 | -69.25095 | 30351 ft | 451 kts | 82° |
| 2026-04-25 14:00 | 43.77201 | -69.20837 | 29951 ft | 435 kts | 71° |
| 2026-04-25 14:00 | 43.77806 | -69.16838 | 29662 ft | 414 kts | 60° |
| 2026-04-25 14:01 | 43.78853 | -69.13242 | 29367 ft | 394 kts | 50° |
| 2026-04-25 14:01 | 43.80292 | -69.10116 | 29003 ft | 376 kts | 39° |
| 2026-04-25 14:01 | 43.82063 | -69.07553 | 28588 ft | 361 kts | 29° |
| 2026-04-25 14:01 | 43.84084 | -69.05633 | 28158 ft | 347 kts | 18° |
| 2026-04-25 14:02 | 43.86282 | -69.04384 | 27745 ft | 337 kts | 9° |
| 2026-04-25 14:02 | 43.88533 | -69.03549 | 27308 ft | 334 kts | 6° |
| 2026-04-25 14:02 | 43.90802 | -69.02856 | 26872 ft | 334 kts | 6° |
| 2026-04-25 14:02 | 43.92315 | -69.02435 | 26584 ft | 335 kts | 5° |
| 2026-04-25 14:03 | 43.95382 | -69.01649 | 26008 ft | 336 kts | 5° |
| 2026-04-25 14:03 | 43.97687 | -69.01108 | 25611 ft | 336 kts | 5° |
| 2026-04-25 14:03 | 44.00002 | -69.00602 | 25213 ft | 337 kts | 5° |
| 2026-04-25 14:03 | 44.02327 | -69.00132 | 24825 ft | 338 kts | 5° |
| 2026-04-25 14:04 | 44.04626 | -68.99701 | 24449 ft | 339 kts | 5° |
| 2026-04-25 14:04 | 44.07000 | -68.99290 | 24071 ft | 340 kts | 5° |
| 2026-04-25 14:04 | 44.09352 | -68.98919 | 23697 ft | 341 kts | 5° |
| 2026-04-25 14:04 | 44.11681 | -68.98580 | 23285 ft | 341 kts | 5° |
| 2026-04-25 14:05 | 44.14028 | -68.98250 | 22968 ft | 338 kts | 5° |
| 2026-04-25 14:05 | 44.16363 | -68.97932 | 22670 ft | 336 kts | 5° |
| 2026-04-25 14:05 | 44.18679 | -68.97624 | 22357 ft | 334 kts | 5° |
| 2026-04-25 14:05 | 44.20986 | -68.97323 | 22037 ft | 332 kts | 5° |
| 2026-04-25 14:06 | 44.23277 | -68.97030 | 21727 ft | 330 kts | 5° |
| 2026-04-25 14:06 | 44.25564 | -68.96745 | 21424 ft | 328 kts | 5° |
| 2026-04-25 14:06 | 44.27836 | -68.96468 | 21125 ft | 327 kts | 5° |
| 2026-04-25 14:06 | 44.30094 | -68.96200 | 20837 ft | 325 kts | 5° |
| 2026-04-25 14:07 | 44.32349 | -68.95938 | 20533 ft | 324 kts | 5° |
| 2026-04-25 14:07 | 44.34594 | -68.95686 | 20287 ft | 322 kts | 5° |
| 2026-04-25 14:07 | 44.36807 | -68.95446 | 20197 ft | 315 kts | 5° |
| 2026-04-25 14:07 | 44.38989 | -68.95203 | 19886 ft | 313 kts | 7° |
| 2026-04-25 14:08 | 44.41056 | -68.94334 | 19463 ft | 314 kts | 31° |
| 2026-04-25 14:08 | 44.42778 | -68.92501 | 19268 ft | 309 kts | 41° |
| 2026-04-25 14:08 | 44.44340 | -68.90429 | 18952 ft | 310 kts | 44° |
| 2026-04-25 14:08 | 44.45868 | -68.88309 | 18714 ft | 308 kts | 44° |
| 2026-04-25 14:09 | 44.47368 | -68.86213 | 18458 ft | 307 kts | 45° |
| 2026-04-25 14:09 | 44.48877 | -68.84099 | 18187 ft | 306 kts | 45° |
| 2026-04-25 14:09 | 44.50375 | -68.81996 | 17918 ft | 304 kts | 45° |
| 2026-04-25 14:09 | 44.50880 | -68.81286 | 17833 ft | 303 kts | 45° |
| 2026-04-25 14:10 | 44.53341 | -68.77824 | 17397 ft | 301 kts | 45° |
| 2026-04-25 14:10 | 44.54817 | -68.75745 | 17090 ft | 301 kts | 45° |
| 2026-04-25 14:10 | 44.56288 | -68.73666 | 16880 ft | 295 kts | 45° |
| 2026-04-25 14:10 | 44.57698 | -68.71667 | 16367 ft | 284 kts | 45° |
| 2026-04-25 14:11 | 44.59092 | -68.69684 | 15761 ft | 290 kts | 44° |
| 2026-04-25 14:11 | 44.60518 | -68.67652 | 15458 ft | 291 kts | 44° |
| 2026-04-25 14:11 | 44.61929 | -68.65632 | 15261 ft | 288 kts | 44° |
| 2026-04-25 14:11 | 44.63326 | -68.63625 | 15062 ft | 287 kts | 44° |
| 2026-04-25 14:12 | 44.64701 | -68.61640 | 14988 ft | 280 kts | 45° |
| 2026-04-25 14:12 | 44.66050 | -68.59693 | 14819 ft | 277 kts | 44° |
| 2026-04-25 14:12 | 44.67393 | -68.57755 | 14603 ft | 276 kts | 44° |
| 2026-04-25 14:12 | 44.68727 | -68.55817 | 14423 ft | 274 kts | 44° |
| 2026-04-25 14:13 | 44.70030 | -68.53915 | 14236 ft | 273 kts | 44° |
| 2026-04-25 14:13 | 44.71344 | -68.51988 | 13992 ft | 274 kts | 44° |
| 2026-04-25 14:13 | 44.72662 | -68.50049 | 13795 ft | 273 kts | 44° |
| 2026-04-25 14:13 | 44.73969 | -68.48119 | 13550 ft | 272 kts | 44° |
| 2026-04-25 14:14 | 44.75272 | -68.46188 | 13324 ft | 272 kts | 44° |
| 2026-04-25 14:14 | 44.76576 | -68.44248 | 13085 ft | 273 kts | 44° |
| 2026-04-25 14:14 | 44.77877 | -68.42301 | 12840 ft | 271 kts | 44° |
| 2026-04-25 14:14 | 44.79136 | -68.40411 | 12315 ft | 260 kts | 44° |
| 2026-04-25 14:15 | 44.80282 | -68.38466 | 11583 ft | 260 kts | 59° |
| 2026-04-25 14:15 | 44.80541 | -68.37685 | 11305 ft | 262 kts | 68° |
| 2026-04-25 14:15 | 44.80355 | -68.33413 | 9896 ft | 279 kts | 114° |
| 2026-04-25 14:15 | 44.79110 | -68.31296 | 8998 ft | 286 kts | 142° |
| 2026-04-25 14:16 | 44.77313 | -68.30076 | 8282 ft | 292 kts | 161° |
| 2026-04-25 14:16 | 44.75368 | -68.29277 | 7996 ft | 289 kts | 164° |
| 2026-04-25 14:16 | 44.73441 | -68.28557 | 7754 ft | 284 kts | 164° |
| 2026-04-25 14:16 | 44.71539 | -68.27855 | 7504 ft | 278 kts | 164° |
| 2026-04-25 14:17 | 44.69728 | -68.27195 | 7143 ft | 262 kts | 164° |
| 2026-04-25 14:17 | 44.67979 | -68.26564 | 6664 ft | 261 kts | 164° |
| 2026-04-25 14:17 | 44.66222 | -68.25935 | 6430 ft | 258 kts | 164° |
| 2026-04-25 14:17 | 44.64490 | -68.25320 | 6220 ft | 255 kts | 164° |
| 2026-04-25 14:18 | 44.62776 | -68.24718 | 5924 ft | 254 kts | 165° |
| 2026-04-25 14:18 | 44.61061 | -68.24118 | 5632 ft | 253 kts | 164° |
| 2026-04-25 14:18 | 44.59346 | -68.23521 | 5283 ft | 256 kts | 164° |
| 2026-04-25 14:18 | 44.57638 | -68.22929 | 5041 ft | 254 kts | 165° |
| 2026-04-25 14:19 | 44.55936 | -68.22340 | 4825 ft | 251 kts | 164° |
| 2026-04-25 14:19 | 44.54250 | -68.21751 | 4558 ft | 249 kts | 165° |
| 2026-04-25 14:19 | 44.52568 | -68.21164 | 4317 ft | 249 kts | 165° |
| 2026-04-25 14:19 | 44.50894 | -68.20581 | 4052 ft | 247 kts | 165° |
| 2026-04-25 14:20 | 44.49221 | -68.20002 | 3797 ft | 246 kts | 165° |
| 2026-04-25 14:20 | 44.48662 | -68.19808 | 3743 ft | 243 kts | 166° |
| 2026-04-25 14:20 | 44.46009 | -68.20333 | 3543 ft | 237 kts | 218° |
| 2026-04-25 14:20 | 44.44969 | -68.22069 | 3444 ft | 234 kts | 252° |
| 2026-04-25 14:21 | 44.44733 | -68.24258 | 3357 ft | 225 kts | 279° |
| 2026-04-25 14:21 | 44.45055 | -68.26368 | 3251 ft | 221 kts | 298° |
| 2026-04-25 14:21 | 44.45831 | -68.28208 | 3157 ft | 219 kts | 307° |
| 2026-04-25 14:21 | 44.46702 | -68.29962 | 3066 ft | 219 kts | 308° |
| 2026-04-25 14:22 | 44.47578 | -68.31698 | 3007 ft | 218 kts | 308° |
| 2026-04-25 14:22 | 44.48463 | -68.33444 | 2971 ft | 218 kts | 312° |
| 2026-04-25 14:22 | 44.49336 | -68.35162 | 2973 ft | 216 kts | 308° |
| 2026-04-25 14:22 | 44.50201 | -68.36864 | 2967 ft | 213 kts | 308° |
| 2026-04-25 14:23 | 44.51062 | -68.38561 | 2974 ft | 214 kts | 308° |
| 2026-04-25 14:23 | 44.51926 | -68.40271 | 2981 ft | 218 kts | 308° |
| 2026-04-25 14:23 | 44.52795 | -68.42003 | 2982 ft | 215 kts | 308° |
| 2026-04-25 14:23 | 44.53662 | -68.43731 | 2947 ft | 217 kts | 308° |
| 2026-04-25 14:24 | 44.54548 | -68.45441 | 2931 ft | 218 kts | 310° |
| 2026-04-25 14:24 | 44.55505 | -68.47059 | 2982 ft | 214 kts | 314° |
| 2026-04-25 14:24 | 44.56475 | -68.48612 | 2986 ft | 215 kts | 314° |
| 2026-04-25 14:24 | 44.57472 | -68.50192 | 2951 ft | 218 kts | 314° |
| 2026-04-25 14:25 | 44.58479 | -68.51774 | 2987 ft | 217 kts | 314° |
| 2026-04-25 14:25 | 44.59489 | -68.53358 | 2976 ft | 217 kts | 314° |
| 2026-04-25 14:25 | 44.60496 | -68.54932 | 2968 ft | 216 kts | 314° |
| 2026-04-25 14:25 | 44.60835 | -68.55462 | 2970 ft | 215 kts | 315° |
| 2026-04-25 14:26 | 44.62481 | -68.58051 | 2979 ft | 213 kts | 315° |
| 2026-04-25 14:26 | 44.63464 | -68.59593 | 2980 ft | 210 kts | 315° |
| 2026-04-25 14:26 | 44.64417 | -68.61090 | 2945 ft | 198 kts | 318° |
| 2026-04-25 14:26 | 44.65444 | -68.62355 | 2987 ft | 195 kts | 324° |
| 2026-04-25 14:27 | 44.66478 | -68.63514 | 3020 ft | 184 kts | 324° |
| 2026-04-25 14:27 | 44.67450 | -68.64617 | 2979 ft | 175 kts | 324° |
| 2026-04-25 14:27 | 44.68403 | -68.65691 | 2990 ft | 174 kts | 324° |
| 2026-04-25 14:27 | 44.69333 | -68.66726 | 2975 ft | 167 kts | 324° |
| 2026-04-25 14:28 | 44.70214 | -68.67747 | 2959 ft | 160 kts | 322° |
| 2026-04-25 14:28 | 44.71020 | -68.68813 | 2719 ft | 156 kts | 319° |
| 2026-04-25 14:28 | 44.71776 | -68.69876 | 2519 ft | 153 kts | 318° |
| 2026-04-25 14:28 | 44.72522 | -68.70946 | 2287 ft | 153 kts | 318° |
| 2026-04-25 14:29 | 44.73256 | -68.72004 | 2154 ft | 153 kts | 318° |
| 2026-04-25 14:29 | 44.73983 | -68.73055 | 1898 ft | 147 kts | 316° |
| 2026-04-25 14:29 | 44.74691 | -68.74075 | 1671 ft | 143 kts | 316° |
| 2026-04-25 14:29 | 44.75386 | -68.75076 | 1495 ft | 145 kts | 316° |
| 2026-04-25 14:30 | 44.76098 | -68.76107 | 1262 ft | 146 kts | 316° |
| 2026-04-25 14:30 | 44.77524 | -68.78170 | 840 ft | 147 kts | 317° |
| 2026-04-25 14:30 | 44.78247 | -68.79208 | 628 ft | 148 kts | 318° |
| 2026-04-25 14:31 | 44.78721 | -68.79891 | 464 ft | 145 kts | 318° |
| 2026-04-25 14:31 | 44.79430 | -68.80929 | 297 ft | 147 kts | 317° |
| 2026-04-25 14:31 | 44.80132 | -68.81944 | 208 ft | 142 kts | 318° |
| 2026-04-25 14:31 | 44.80766 | -68.82846 | 202 ft | 115 kts | 314° |
| 2026-04-25 14:32 | 44.81244 | -68.83534 | 205 ft | 79 kts | 313° |
| 2026-04-25 14:32 | 44.81539 | -68.83963 | 210 ft | 48 kts | 314° |
| 2026-04-25 14:32 | 44.81725 | -68.84228 | 211 ft | 23 kts | 315° |
| 2026-04-25 14:32 | 44.81807 | -68.84304 | 213 ft | 14 kts | 351° |
| 2026-04-25 14:33 | 44.81900 | -68.84273 | 218 ft | 14 kts | 33° |
| 2026-04-25 14:33 | 44.81963 | -68.84191 | 217 ft | 11 kts | 44° |
| 2026-04-25 14:33 | 44.82009 | -68.84118 | 211 ft | 9 kts | 62° |
| 2026-04-25 14:33 | 44.82002 | -68.84032 | 211 ft | 9 kts | 122° |
| 2026-04-25 14:34 | 44.81959 | -68.83965 | 216 ft | 9 kts | 134° |
| 2026-04-25 14:34 | 44.81914 | -68.83900 | 210 ft | 9 kts | 134° |
| 2026-04-25 14:34 | 44.81869 | -68.83834 | 209 ft | 9 kts | 134° |
| 2026-04-25 14:34 | 44.81817 | -68.83760 | 215 ft | 15 kts | 134° |
| 2026-04-25 14:35 | 44.81736 | -68.83644 | 214 ft | 17 kts | 134° |
| 2026-04-25 14:35 | 44.81655 | -68.83527 | 211 ft | 17 kts | 134° |
| 2026-04-25 14:35 | 44.81581 | -68.83421 | 212 ft | 15 kts | 134° |
| 2026-04-25 14:35 | 44.81510 | -68.83318 | 211 ft | 15 kts | 134° |
| 2026-04-25 14:36 | 44.81438 | -68.83214 | 211 ft | 15 kts | 134° |
| 2026-04-25 14:36 | 44.81367 | -68.83111 | 209 ft | 15 kts | 134° |
| 2026-04-25 14:36 | 44.81296 | -68.83008 | 203 ft | 15 kts | 134° |
| 2026-04-25 14:36 | 44.81224 | -68.82904 | 203 ft | 15 kts | 134° |
| 2026-04-25 14:37 | 44.81153 | -68.82800 | 202 ft | 15 kts | 134° |
| 2026-04-25 14:37 | 44.81081 | -68.82697 | 201 ft | 15 kts | 134° |
| 2026-04-25 14:37 | 44.81010 | -68.82593 | 200 ft | 15 kts | 134° |
| 2026-04-25 14:37 | 44.80938 | -68.82491 | 201 ft | 15 kts | 134° |
| 2026-04-25 14:38 | 44.80870 | -68.82393 | 203 ft | 12 kts | 134° |
| 2026-04-25 14:38 | 44.80841 | -68.82327 | 202 ft | 7 kts | 98° |
| 2026-04-25 14:38 | 44.80848 | -68.82254 | 194 ft | 8 kts | 81° |
| 2026-04-25 14:38 | 44.80861 | -68.82183 | 197 ft | 8 kts | 63° |
| 2026-04-25 14:39 | 44.80894 | -68.82129 | 200 ft | 7 kts | 45° |
| 2026-04-25 14:39 | 44.80922 | -68.82083 | 196 ft | 5 kts | 65° |
| 2026-04-25 14:39 | 44.80905 | -68.82035 | 204 ft | 6 kts | 130° |
| 2026-04-25 14:39 | 44.80877 | -68.81992 | 204 ft | 6 kts | 133° |
| 2026-04-25 14:40 | 44.80852 | -68.81956 | 198 ft | 4 kts | 133° |
| 2026-04-25 14:40 | 44.80837 | -68.81934 | 198 ft | 3 kts | 135° |
| 2026-04-25 14:40 | 44.80831 | -68.81926 | 196 ft | 0 kts | 134° |